createdAt,value
2022-11-08T00:00:44.328Z,24.36
2022-11-08T00:03:11.409Z,24.39
2022-11-08T00:05:56.514Z,22.47
2022-11-08T00:08:41.884Z,23.22
2022-11-08T00:11:27.209Z,22.87
2022-11-08T00:14:00.025Z,22.88
2022-11-08T00:16:28.657Z,25.37
2022-11-08T00:18:55.344Z,24.13
2022-11-08T00:21:22.063Z,22.57
2022-11-08T00:23:48.804Z,22.21
2022-11-08T00:26:15.534Z,22.96
2022-11-08T00:28:42.254Z,22.77
2022-11-08T00:31:09.023Z,23.97
2022-11-08T00:33:35.717Z,23.99
2022-11-08T00:36:03.477Z,25.25
2022-11-08T00:38:30.458Z,21.56
2022-11-08T00:40:57.072Z,21.97
2022-11-08T00:43:24.229Z,21.96
2022-11-08T00:45:50.905Z,21.65
2022-11-08T00:48:17.892Z,22.30
2022-11-08T00:50:44.810Z,22.54
2022-11-08T00:53:11.721Z,24.47
2022-11-08T00:55:39.081Z,23.12
2022-11-08T00:58:05.784Z,24.64
2022-11-08T01:00:32.661Z,22.05
2022-11-08T01:03:22.613Z,22.00
2022-11-08T01:05:51.652Z,21.47
2022-11-08T01:08:20.195Z,23.03
2022-11-08T01:10:50.204Z,22.48
2022-11-08T01:13:18.428Z,23.63
2022-11-08T01:15:46.570Z,24.26
2022-11-08T01:18:15.945Z,23.91
2022-11-08T01:20:45.188Z,24.72
2022-11-08T01:23:12.892Z,24.73
2022-11-08T01:25:42.044Z,24.11
2022-11-08T01:28:11.933Z,21.77
2022-11-08T01:30:40.889Z,21.22
2022-11-08T01:33:08.416Z,22.92
2022-11-08T01:35:36.665Z,21.90
2022-11-08T01:38:04.783Z,22.97
2022-11-08T01:40:32.514Z,22.43
2022-11-08T01:42:59.163Z,23.27
2022-11-08T01:46:07.640Z,28.04
2022-11-08T01:48:34.311Z,26.14
2022-11-08T01:51:01.244Z,24.10
2022-11-08T01:53:29.222Z,22.86
2022-11-08T01:55:57.143Z,24.62
2022-11-08T01:58:27.497Z,22.07
2022-11-08T02:00:54.779Z,21.30
2022-11-08T02:03:22.119Z,23.54
2022-11-08T02:05:49.057Z,23.21
2022-11-08T02:08:44.929Z,21.85
2022-11-08T02:11:15.075Z,22.96
2022-11-08T02:13:42.146Z,21.27
2022-11-08T02:16:14.960Z,24.22
2022-11-08T02:18:44.101Z,23.51
2022-11-08T02:21:27.277Z,21.99
2022-11-08T02:24:00.759Z,21.28
2022-11-08T02:26:35.108Z,21.82
2022-11-08T02:29:27.808Z,21.82
2022-11-08T02:31:56.284Z,22.22
2022-11-08T02:34:37.833Z,20.94
2022-11-08T02:37:06.695Z,21.81
2022-11-08T02:39:34.336Z,22.30
2022-11-08T02:42:02.354Z,23.30
2022-11-08T02:44:29.354Z,22.57
2022-11-08T02:46:56.581Z,22.04
2022-11-08T02:49:23.288Z,24.15
2022-11-08T02:51:52.329Z,21.76
2022-11-08T02:54:19.064Z,24.14
2022-11-08T02:56:45.769Z,23.11
2022-11-08T02:59:12.611Z,23.69
2022-11-08T03:01:39.406Z,23.29
2022-11-08T03:04:06.620Z,22.88
2022-11-08T03:06:33.288Z,22.36
2022-11-08T03:09:00.002Z,22.43
2022-11-08T03:11:28.197Z,24.07
2022-11-08T03:13:55.364Z,22.76
2022-11-08T03:16:22.129Z,22.37
2022-11-08T03:18:48.861Z,21.66
2022-11-08T03:21:15.776Z,22.72
2022-11-08T03:23:42.972Z,26.88
2022-11-08T03:26:09.659Z,24.56
2022-11-08T03:28:36.401Z,24.97
2022-11-08T03:31:03.116Z,27.73
2022-11-08T03:33:29.958Z,22.13
2022-11-08T03:35:57.444Z,21.72
2022-11-08T03:38:24.168Z,23.98
2022-11-08T03:40:50.908Z,25.83
2022-11-08T03:43:17.612Z,25.38
2022-11-08T03:45:46.011Z,24.66
2022-11-08T03:48:13.230Z,23.06
2022-11-08T03:50:39.936Z,23.01
2022-11-08T03:53:06.665Z,22.69
2022-11-08T03:55:33.360Z,22.73
2022-11-08T03:58:00.107Z,26.81
2022-11-08T04:00:29.148Z,27.20
2022-11-08T04:03:02.315Z,22.37
2022-11-08T04:05:29.930Z,21.40
2022-11-08T04:07:58.502Z,22.37
2022-11-08T04:10:25.216Z,25.45
2022-11-08T04:13:11.206Z,29.16
2022-11-08T04:15:38.028Z,24.16
2022-11-08T04:18:23.429Z,22.77
2022-11-08T04:21:08.657Z,21.64
2022-11-08T04:23:37.379Z,20.95
2022-11-08T04:26:07.072Z,22.11
2022-11-08T04:28:37.007Z,22.40
2022-11-08T04:31:07.495Z,24.71
2022-11-08T04:33:34.760Z,23.66
2022-11-08T04:36:11.378Z,22.89
2022-11-08T04:38:38.183Z,23.67
2022-11-08T04:41:12.473Z,23.12
2022-11-08T04:43:39.715Z,21.71
2022-11-08T04:46:12.480Z,24.11
2022-11-08T04:48:39.864Z,22.32
2022-11-08T04:51:18.432Z,22.01
2022-11-08T04:53:46.201Z,22.81
2022-11-08T04:56:15.288Z,21.52
2022-11-08T04:58:44.664Z,21.93
2022-11-08T05:01:15.364Z,23.26
2022-11-08T05:03:43.678Z,24.43
2022-11-08T05:06:14.464Z,24.33
2022-11-08T05:08:41.504Z,24.60
2022-11-08T05:11:14.322Z,22.87
2022-11-08T05:13:41.909Z,23.66
2022-11-08T05:16:12.888Z,23.55
2022-11-08T05:18:41.815Z,24.14
2022-11-08T05:21:30.300Z,22.98
2022-11-08T05:23:57.918Z,24.49
2022-11-08T05:26:25.261Z,24.55
2022-11-08T05:28:51.966Z,25.13
2022-11-08T05:31:18.725Z,23.54
2022-11-08T05:33:45.696Z,23.61
2022-11-08T05:36:15.629Z,24.20
2022-11-08T05:38:43.209Z,28.46
2022-11-08T05:41:16.824Z,23.84
2022-11-08T05:43:46.709Z,22.23
2022-11-08T05:46:14.069Z,22.82
2022-11-08T05:48:43.178Z,23.85
2022-11-08T05:51:12.099Z,24.38
2022-11-08T05:53:39.929Z,22.18
2022-11-08T05:56:07.071Z,23.10
2022-11-08T05:58:35.271Z,24.40
2022-11-08T06:01:13.369Z,27.05
2022-11-08T06:03:40.199Z,24.99
2022-11-08T06:06:13.440Z,24.78
2022-11-08T06:08:42.465Z,25.91
2022-11-08T06:11:22.985Z,28.18
2022-11-08T06:13:50.674Z,25.10
2022-11-08T06:16:18.790Z,24.04
2022-11-08T06:18:47.042Z,26.25
2022-11-08T06:21:20.314Z,24.58
2022-11-08T06:23:47.725Z,23.18
2022-11-08T06:26:14.789Z,23.23
2022-11-08T06:28:42.438Z,24.99
2022-11-08T06:31:09.300Z,25.09
2022-11-08T06:33:36.068Z,24.05
2022-11-08T06:36:03.031Z,23.31
2022-11-08T06:38:29.984Z,23.34
2022-11-08T06:41:01.183Z,22.62
2022-11-08T06:43:28.808Z,28.07
2022-11-08T06:45:59.885Z,24.50
2022-11-08T06:48:29.845Z,23.00
2022-11-08T06:50:59.244Z,22.13
2022-11-08T06:53:25.925Z,24.24
2022-11-08T06:55:52.615Z,22.38
2022-11-08T06:58:19.340Z,22.32
2022-11-08T07:00:46.202Z,22.66
2022-11-08T07:03:14.856Z,25.77
2022-11-08T07:05:41.566Z,25.62
2022-11-08T07:08:08.361Z,25.13
2022-11-08T07:10:36.476Z,24.20
2022-11-08T07:13:06.120Z,23.32
2022-11-08T07:15:34.647Z,23.21
2022-11-08T07:18:03.494Z,21.74
2022-11-08T07:20:30.535Z,18.75
2022-11-08T07:22:59.243Z,20.23
2022-11-08T07:25:27.001Z,20.24
2022-11-08T07:27:58.137Z,20.14
2022-11-08T07:30:25.571Z,17.73
2022-11-08T07:32:52.383Z,18.20
2022-11-08T07:35:19.259Z,20.35
2022-11-08T07:37:46.067Z,17.89
2022-11-08T07:40:14.293Z,18.36
2022-11-08T07:43:09.556Z,17.01
2022-11-08T07:45:29.337Z,18.94
2022-11-08T07:48:11.487Z,18.66
2022-11-08T07:50:43.272Z,16.08
2022-11-08T07:53:10.479Z,16.68
2022-11-08T07:55:37.886Z,15.63
2022-11-08T07:58:04.829Z,18.15
2022-11-08T08:00:32.878Z,17.79
2022-11-08T08:03:00.920Z,15.86
2022-11-08T08:05:29.621Z,16.81
2022-11-08T08:07:58.614Z,16.51
2022-11-08T08:10:27.364Z,15.55
2022-11-08T08:12:54.730Z,17.71
2022-11-08T08:15:21.510Z,19.04
2022-11-08T08:17:48.269Z,15.42
2022-11-08T08:20:15.084Z,19.22
2022-11-08T08:22:47.160Z,15.31
2022-11-08T08:25:15.239Z,15.03
2022-11-08T08:27:50.116Z,14.48
2022-11-08T08:30:17.975Z,14.16
2022-11-08T08:32:47.905Z,15.12
2022-11-08T08:35:20.460Z,13.83
2022-11-08T08:37:47.224Z,13.59
2022-11-08T08:40:14.188Z,17.08
2022-11-08T08:42:41.390Z,14.60
2022-11-08T08:45:12.131Z,15.10
2022-11-08T08:47:41.540Z,15.65
2022-11-08T08:50:08.663Z,14.30
2022-11-08T08:52:35.417Z,12.88
2022-11-08T08:55:02.113Z,14.09
2022-11-08T08:57:28.845Z,13.63
2022-11-08T09:02:42.927Z,18.96
2022-11-08T09:05:11.598Z,18.91
2022-11-08T09:07:38.701Z,16.32
2022-11-08T09:10:06.605Z,14.42
2022-11-08T09:12:34.434Z,15.58
2022-11-08T09:15:01.705Z,19.12
2022-11-08T09:17:29.218Z,19.80
2022-11-08T09:19:57.441Z,22.36
2022-11-08T09:22:24.621Z,21.73
2022-11-08T09:24:51.363Z,22.48
2022-11-08T09:27:18.389Z,18.95
2022-11-08T09:29:45.524Z,22.10
2022-11-08T09:32:12.459Z,18.61
2022-11-08T09:34:39.194Z,16.21
2022-11-08T09:37:05.959Z,15.05
2022-11-08T09:39:32.675Z,17.23
2022-11-08T09:42:17.933Z,16.25
2022-11-08T09:44:53.447Z,16.37
2022-11-08T09:47:34.606Z,14.50
2022-11-08T09:50:07.621Z,16.80
2022-11-08T09:52:35.252Z,14.51
2022-11-08T09:55:17.078Z,16.72
2022-11-08T09:58:22.674Z,15.37
2022-11-08T10:00:53.281Z,15.30
2022-11-08T10:03:24.117Z,12.74
2022-11-08T10:06:35.944Z,14.29
2022-11-08T10:09:44.423Z,13.12
2022-11-08T10:12:25.212Z,15.47
2022-11-08T10:14:57.667Z,16.96
2022-11-08T10:17:54.987Z,14.21
2022-11-08T10:20:59.861Z,16.80
2022-11-08T10:23:48.165Z,15.71
2022-11-08T10:26:21.604Z,16.75
2022-11-08T10:29:27.468Z,18.18
2022-11-08T10:32:14.997Z,18.73
2022-11-08T10:35:05.422Z,18.42
2022-11-08T10:37:34.109Z,18.96
2022-11-08T10:40:12.539Z,19.48
2022-11-08T10:42:58.095Z,20.51
2022-11-08T10:45:24.885Z,18.51
2022-11-08T10:47:54.293Z,18.96
2022-11-08T10:50:32.320Z,18.88
2022-11-08T10:53:04.234Z,19.08
2022-11-08T10:55:38.678Z,19.75
2022-11-08T10:58:33.253Z,18.16
2022-11-08T11:01:07.568Z,18.59
2022-11-08T11:03:34.985Z,17.36
2022-11-08T11:06:07.548Z,18.65
2022-11-08T11:08:34.550Z,17.22
2022-11-08T11:11:25.671Z,18.81
2022-11-08T11:14:24.848Z,18.50
2022-11-08T11:17:03.657Z,18.69
2022-11-08T11:19:31.644Z,16.58
2022-11-08T11:22:05.068Z,16.79
2022-11-08T11:24:36.555Z,17.60
2022-11-08T11:27:07.974Z,17.83
2022-11-08T11:29:37.006Z,16.24
2022-11-08T11:32:34.513Z,17.90
2022-11-08T11:35:04.668Z,15.68
2022-11-08T11:37:45.590Z,18.51
2022-11-08T11:40:30.294Z,19.12
2022-11-08T11:43:08.161Z,17.74
2022-11-08T11:45:50.188Z,15.70
2022-11-08T11:48:21.901Z,15.90
2022-11-08T11:50:50.061Z,17.55
2022-11-08T11:53:21.743Z,16.61
2022-11-08T11:56:13.625Z,17.76
2022-11-08T11:59:02.279Z,17.18
2022-11-08T12:02:20.265Z,15.58
2022-11-08T12:05:24.492Z,15.63
2022-11-08T12:08:02.429Z,15.19
2022-11-08T12:10:51.515Z,15.24
2022-11-08T12:13:54.623Z,15.52
2022-11-08T12:16:45.192Z,15.98
2022-11-08T12:19:35.018Z,16.79
2022-11-08T12:22:24.939Z,15.67
2022-11-08T12:25:13.158Z,15.72
2022-11-08T12:28:27.801Z,16.14
2022-11-08T12:31:07.457Z,16.86
2022-11-08T12:33:58.265Z,16.64
2022-11-08T12:36:53.515Z,16.81
2022-11-08T12:39:49.445Z,17.02
2022-11-08T12:42:37.546Z,19.30
2022-11-08T12:45:23.401Z,17.40
2022-11-08T12:48:05.961Z,18.12
2022-11-08T12:50:56.314Z,18.30
2022-11-08T12:53:52.098Z,17.66
2022-11-08T12:56:25.614Z,19.01
2022-11-08T12:58:54.510Z,20.12
2022-11-08T13:01:23.298Z,20.39
2022-11-08T13:04:13.393Z,19.23
2022-11-08T13:07:07.444Z,19.22
2022-11-08T13:09:46.598Z,18.79
2022-11-08T13:12:28.636Z,18.72
2022-11-08T13:14:55.765Z,19.44
2022-11-08T13:17:26.252Z,19.17
2022-11-08T13:20:04.496Z,18.66
2022-11-08T13:22:32.959Z,20.77
2022-11-08T13:25:26.805Z,19.10
2022-11-08T13:27:53.673Z,19.05
2022-11-08T13:30:20.619Z,19.25
2022-11-08T13:33:00.644Z,19.70
2022-11-08T13:35:48.286Z,18.61
2022-11-08T13:39:03.108Z,18.23
2022-11-08T13:41:31.147Z,18.67
2022-11-08T13:43:58.866Z,19.86
2022-11-08T13:46:28.249Z,18.92
2022-11-08T13:48:57.774Z,18.92
2022-11-08T13:51:29.842Z,20.37
2022-11-08T13:54:22.458Z,19.70
2022-11-08T13:56:54.485Z,20.02
2022-11-08T13:59:29.991Z,20.19
2022-11-08T14:02:24.529Z,20.77
2022-11-08T14:04:53.888Z,20.94
2022-11-08T14:07:30.732Z,20.83
2022-11-08T14:10:06.452Z,20.90
2022-11-08T14:12:51.075Z,20.53
2022-11-08T14:15:27.646Z,22.55
2022-11-08T14:17:57.101Z,21.33
2022-11-08T14:20:30.445Z,22.81
2022-11-08T14:22:58.997Z,23.66
2022-11-08T14:25:36.404Z,24.75
2022-11-08T14:28:04.348Z,24.32
2022-11-08T14:30:33.633Z,24.28
2022-11-08T14:33:06.452Z,24.33
2022-11-08T14:35:33.961Z,20.86
2022-11-08T14:38:00.680Z,21.74
2022-11-08T14:40:28.995Z,22.21
2022-11-08T14:42:56.420Z,23.27
2022-11-08T14:45:28.118Z,23.40
2022-11-08T14:48:05.177Z,24.80
2022-11-08T14:50:35.013Z,24.70
2022-11-08T14:53:23.018Z,25.25
2022-11-08T14:56:11.064Z,24.64
2022-11-08T14:58:37.848Z,25.73
2022-11-08T15:01:06.395Z,25.11
2022-11-08T15:03:34.024Z,24.54
2022-11-08T15:06:02.979Z,23.67
2022-11-08T15:08:46.673Z,23.42
2022-11-08T15:11:28.683Z,22.08
2022-11-08T15:14:08.204Z,22.00
2022-11-08T15:16:44.558Z,26.17
2022-11-08T15:19:34.313Z,26.30
2022-11-08T15:22:22.152Z,25.76
2022-11-08T15:25:15.437Z,25.40
2022-11-08T15:27:54.690Z,24.39
2022-11-08T15:30:22.650Z,24.84
2022-11-08T15:32:50.570Z,24.66
2022-11-08T15:35:27.278Z,22.38
2022-11-08T15:38:01.423Z,22.60
2022-11-08T15:40:31.897Z,23.29
2022-11-08T15:43:00.268Z,22.64
2022-11-08T15:45:33.554Z,24.70
2022-11-08T15:48:11.298Z,23.02
2022-11-08T15:50:38.046Z,23.83
2022-11-08T15:53:06.098Z,22.70
2022-11-08T15:55:39.498Z,23.88
2022-11-08T15:58:16.086Z,22.94
2022-11-08T16:00:49.593Z,23.22
2022-11-08T16:03:16.478Z,22.83
2022-11-08T16:05:43.446Z,24.36
2022-11-08T16:08:10.205Z,23.52
2022-11-08T16:10:37.175Z,22.79
2022-11-08T16:13:05.664Z,26.21
2022-11-08T16:15:35.909Z,25.24
2022-11-08T16:18:03.303Z,25.16
2022-11-08T16:20:32.042Z,23.64
2022-11-08T16:23:01.353Z,23.58
2022-11-08T16:25:29.746Z,24.29
2022-11-08T16:27:59.616Z,23.11
2022-11-08T16:30:27.208Z,24.19
2022-11-08T16:32:53.892Z,24.86
2022-11-08T16:35:21.258Z,26.43
2022-11-08T16:37:50.097Z,24.11
2022-11-08T16:40:23.580Z,23.83
2022-11-08T16:42:52.362Z,23.73
2022-11-08T16:45:37.290Z,25.01
2022-11-08T16:48:16.478Z,25.70
2022-11-08T16:50:44.188Z,24.79
2022-11-08T16:53:22.210Z,26.11
2022-11-08T16:55:48.969Z,28.51
2022-11-08T16:58:15.946Z,25.86
2022-11-08T17:00:44.863Z,26.93
2022-11-08T17:03:22.206Z,24.63
2022-11-08T17:05:50.368Z,24.77
2022-11-08T17:08:17.549Z,24.11
2022-11-08T17:10:44.768Z,25.97
2022-11-08T17:13:16.409Z,26.79
2022-11-08T17:15:43.873Z,24.96
2022-11-08T17:18:12.714Z,24.94
2022-11-08T17:20:39.657Z,25.97
2022-11-08T17:23:07.626Z,26.35
2022-11-08T17:25:36.917Z,23.83
2022-11-08T17:28:05.953Z,24.91
2022-11-08T17:30:33.339Z,24.77
2022-11-08T17:33:00.209Z,24.58
2022-11-08T17:35:27.052Z,23.79
2022-11-08T17:37:53.791Z,24.12
2022-11-08T17:40:21.144Z,23.93
2022-11-08T17:42:48.267Z,25.49
2022-11-08T17:45:15.174Z,26.01
2022-11-08T17:47:42.931Z,26.39
2022-11-08T17:50:10.259Z,27.70
2022-11-08T17:52:37.640Z,25.36
2022-11-08T17:55:05.046Z,26.24
2022-11-08T17:57:31.820Z,28.89
2022-11-08T17:59:58.620Z,25.45
2022-11-08T18:02:27.438Z,25.03
2022-11-08T18:04:54.779Z,25.02
2022-11-08T18:07:21.882Z,24.99
2022-11-08T18:09:48.645Z,27.95
2022-11-08T18:12:15.526Z,25.10
2022-11-08T18:14:42.245Z,24.95
2022-11-08T18:17:09.008Z,26.49
2022-11-08T18:19:37.277Z,25.44
2022-11-08T18:22:04.878Z,23.84
2022-11-08T18:24:31.964Z,23.98
2022-11-08T18:26:58.949Z,24.12
2022-11-08T18:29:25.731Z,24.96
2022-11-08T18:31:52.578Z,25.77
2022-11-08T18:34:19.974Z,25.61
2022-11-08T18:36:49.068Z,25.28
2022-11-08T18:39:19.428Z,24.92
2022-11-08T18:41:46.807Z,24.73
2022-11-08T18:44:13.657Z,25.42
2022-11-08T18:46:43.227Z,25.34
2022-11-08T18:49:11.035Z,26.23
2022-11-08T18:51:38.184Z,26.49
2022-11-08T18:54:05.346Z,25.93
2022-11-08T18:56:32.060Z,25.94
2022-11-08T18:58:59.602Z,24.20
2022-11-08T19:01:26.418Z,24.09
2022-11-08T19:03:53.417Z,26.43
2022-11-08T19:06:20.639Z,26.69
2022-11-08T19:08:47.873Z,25.88
2022-11-08T19:11:15.274Z,23.98
2022-11-08T19:13:42.275Z,23.52
2022-11-08T19:16:13.677Z,24.76
2022-11-08T19:18:42.332Z,24.70
2022-11-08T19:21:20.481Z,26.31
2022-11-08T19:23:48.325Z,24.00
2022-11-08T19:26:25.797Z,24.13
2022-11-08T19:28:57.353Z,24.70
2022-11-08T19:31:25.195Z,24.17
2022-11-08T19:33:53.825Z,24.49
2022-11-08T19:36:26.273Z,24.74
2022-11-08T19:38:54.878Z,25.04
2022-11-08T19:41:24.950Z,25.85
2022-11-08T19:43:52.948Z,27.46
2022-11-08T19:46:23.632Z,24.84
2022-11-08T19:48:52.021Z,24.28
2022-11-08T19:51:22.029Z,24.19
2022-11-08T19:53:49.267Z,26.30
2022-11-08T19:56:18.615Z,24.62
2022-11-08T19:58:46.149Z,24.18
2022-11-08T20:01:24.102Z,23.88
2022-11-08T20:03:52.060Z,23.78
2022-11-08T20:06:20.965Z,23.40
2022-11-08T20:08:53.176Z,26.13
2022-11-08T20:11:25.608Z,25.22
2022-11-08T20:13:52.959Z,24.70
2022-11-08T20:16:36.212Z,26.31
2022-11-08T20:19:09.271Z,25.47
2022-11-08T20:21:38.817Z,25.19
2022-11-08T20:24:06.144Z,24.51
2022-11-08T20:26:34.722Z,25.05
2022-11-08T20:29:01.405Z,27.66
2022-11-08T20:31:28.681Z,24.47
2022-11-08T20:33:56.248Z,23.94
2022-11-08T20:36:24.837Z,25.92
2022-11-08T20:38:57.196Z,25.07
2022-11-08T20:41:25.462Z,24.79
2022-11-08T20:43:52.862Z,24.37
2022-11-08T20:46:21.238Z,23.63
2022-11-08T20:48:51.928Z,23.61
2022-11-08T20:51:21.189Z,24.88
2022-11-08T20:53:48.755Z,23.03
2022-11-08T20:56:25.438Z,23.08
2022-11-08T20:58:54.045Z,25.39
2022-11-08T21:01:30.642Z,25.60
2022-11-08T21:03:57.596Z,24.70
2022-11-08T21:06:26.689Z,26.38
2022-11-08T21:08:59.874Z,26.15
2022-11-08T21:11:30.451Z,26.88
2022-11-08T21:13:57.322Z,27.07
2022-11-08T21:16:30.436Z,27.96
2022-11-08T21:18:59.955Z,26.25
2022-11-08T21:21:27.209Z,24.56
2022-11-08T21:23:54.888Z,25.12
2022-11-08T21:26:23.208Z,25.42
2022-11-08T21:28:50.122Z,24.68
2022-11-08T21:31:17.249Z,24.22
2022-11-08T21:33:44.055Z,27.83
2022-11-08T21:36:10.902Z,25.62
2022-11-08T21:38:39.576Z,26.97
2022-11-08T21:41:09.660Z,24.00
2022-11-08T21:43:39.588Z,24.31
2022-11-08T21:46:26.609Z,24.47
2022-11-08T21:48:56.003Z,24.62
2022-11-08T21:51:23.715Z,25.66
2022-11-08T21:53:55.903Z,24.83
2022-11-08T21:56:24.694Z,24.96
2022-11-08T21:58:52.462Z,25.11
2022-11-08T22:01:21.544Z,25.88
2022-11-08T22:03:50.894Z,26.67
2022-11-08T22:06:17.996Z,25.68
2022-11-08T22:08:44.712Z,25.22
2022-11-08T22:11:11.449Z,25.74
2022-11-08T22:13:38.773Z,25.58
2022-11-08T22:16:05.899Z,26.96
2022-11-08T22:21:38.799Z,27.82
2022-11-08T22:24:07.516Z,29.02
2022-11-08T22:26:34.758Z,25.71
2022-11-08T22:29:03.238Z,28.44
2022-11-08T22:31:30.606Z,25.07
2022-11-08T22:33:57.346Z,24.58
2022-11-08T22:36:24.861Z,23.79
2022-11-08T22:38:52.310Z,26.06
2022-11-08T22:41:20.846Z,26.08
2022-11-08T22:43:47.885Z,25.00
2022-11-08T22:46:15.094Z,24.36
2022-11-08T22:48:41.820Z,26.03
2022-11-08T22:51:10.061Z,26.79
2022-11-08T22:53:37.721Z,24.00
2022-11-08T22:56:10.713Z,25.80
2022-11-08T22:58:39.204Z,24.68
2022-11-08T23:01:07.605Z,24.19
2022-11-08T23:03:34.405Z,24.66
2022-11-08T23:06:01.129Z,24.93
2022-11-08T23:08:27.909Z,25.75
2022-11-08T23:11:13.941Z,24.65
2022-11-08T23:13:59.276Z,26.49
2022-11-08T23:16:31.856Z,28.93
2022-11-08T23:19:17.824Z,29.87
2022-11-08T23:22:03.153Z,26.22
2022-11-08T23:24:31.664Z,28.19
2022-11-08T23:27:20.310Z,26.04
2022-11-08T23:30:05.586Z,26.22
2022-11-08T23:32:33.220Z,25.66
2022-11-08T23:35:00.173Z,25.26
2022-11-08T23:37:27.554Z,26.31
2022-11-08T23:40:12.595Z,25.55
2022-11-08T23:42:57.855Z,25.54
2022-11-08T23:45:24.826Z,25.36
2022-11-08T23:47:53.122Z,25.52
2022-11-08T23:50:19.766Z,24.79
2022-11-08T23:52:46.657Z,24.69
2022-11-08T23:55:13.383Z,23.29
2022-11-08T23:57:40.793Z,25.91
